WetterOnline ( https://www.wetteronline.de )

Wetter aktuell Stinstedt

Aktuelles Wetter: Bremerhaven (11m)

6-stündlich | Neueste Meldungen
Ortszeit Temperatur Wetter
Do, 20.06. 20:00 17.5° C wolkig
Do, 20.06. 14:00 19.4° C bedeckt
Do, 20.06. 8:00 17.5° C bedeckt
Do, 20.06. 2:00 17.0° C bedeckt
Mi, 19.06. 20:00 20.6° C wolkig
Mi, 19.06. 14:00 27.9° C wolkenlos
Mi, 19.06. 8:00 19.6° C bedeckt
Mi, 19.06. 2:00 18.3° C wolkig
Ortszeit Temperatur Wetter
Do, 20.06. 21:30 16.7° C wolkig
Do, 20.06. 21:20 16.7° C wolkig
Do, 20.06. 21:10 16.8° C wolkig
Do, 20.06. 21:00 17.1° C bewölkt
Do, 20.06. 20:50 17.1° C bewölkt
Do, 20.06. 20:40 17.1° C bewölkt
Do, 20.06. 20:30 17.3° C wolkig
Do, 20.06. 20:00 17.5° C wolkig
Do, 20.06. 19:30 17.5° C leicht bewölkt
Do, 20.06. 19:00 17.7° C leichter Regen
Do, 20.06. 18:30 18.2° C leicht bewölkt
Ortszeit Relative Feuchte Sichtweite
Do, 20.06. 20:00 83% 23 km
Do, 20.06. 14:00 76% 25 km
Do, 20.06. 8:00 94% 7 km
Do, 20.06. 2:00 92% 26 km
Mi, 19.06. 20:00 77% 45 km
Mi, 19.06. 14:00 45% 29 km
Mi, 19.06. 8:00 77% -
Mi, 19.06. 2:00 85% -
Ortszeit Relative Feuchte Sichtweite
Do, 20.06. 21:30 79% 40 km
Do, 20.06. 21:20 79% -
Do, 20.06. 21:10 78% -
Do, 20.06. 21:00 85% 45 km
Do, 20.06. 20:50 85% -
Do, 20.06. 20:40 82% -
Do, 20.06. 20:30 83% 30 km
Do, 20.06. 20:00 83% 23 km
Do, 20.06. 19:30 80% 21 km
Do, 20.06. 19:00 84% 13 km
Do, 20.06. 18:30 85% 20 km
Ortszeit Niederschlagsmenge Niederschlagsart
Do, 20.06. 20:00 0.8 l/m2 in 12 Std. Regen
Do, 20.06. 14:00 0.1 l/m2 in 6 Std. Sprühregen
Do, 20.06. 8:00 5 l/m2 in 12 Std. Regen
Do, 20.06. 2:00 5 l/m2 in 6 Std. Regen
Mi, 19.06. 20:00 5 l/m2 in 12 Std. Regenschauer
Mi, 19.06. 14:00 0.0 l/m2 in 6 Std. -
Mi, 19.06. 8:00 0.0 l/m2 in 12 Std. -
Mi, 19.06. 2:00 0.0 l/m2 in 6 Std. -
Ortszeit Niederschlagsmenge Niederschlagsart
Do, 20.06. 21:30 0.0 l/m2 in 1 Std. -
Do, 20.06. 21:20 keine Meldung -
Do, 20.06. 21:10 keine Meldung -
Do, 20.06. 21:00 0.0 l/m2 in 1 Std. -
Do, 20.06. 20:50 keine Meldung -
Do, 20.06. 20:40 keine Meldung -
Do, 20.06. 20:30 0.0 l/m2 in 1 Std. -
Do, 20.06. 20:00 0.1 l/m2 in 1 Std. Regen
Do, 20.06. 19:30 0.1 l/m2 in 1 Std. Schneeregen
Do, 20.06. 19:00 0.1 l/m2 in 1 Std. Regen
Do, 20.06. 18:30 0.0 l/m2 in 1 Std. -
Ortszeit Stärke Spitze Richtung
km/h Bft. km/h Grad Sektor
Do, 20.06. 20:00 18 3 32 320° NW
Do, 20.06. 14:00 24 4 39 230° SW
Do, 20.06. 8:00 18 3 32 240° SW
Do, 20.06. 2:00 11 2 47 160° S
Mi, 19.06. 20:00 7 2 108 90° O
Mi, 19.06. 14:00 28 4 41 220° SW
Mi, 19.06. 8:00 11 2 20 110° O
Mi, 19.06. 2:00 13 3 20 50° NO
Ortszeit Stärke Spitze Richtung
km/h Bft. km/h Grad Sektor
Do, 20.06. 21:30 28 4 33 320° NW
Do, 20.06. 21:20 28 4 - 320° NW
Do, 20.06. 21:10 25 4 - 320° NW
Do, 20.06. 21:00 26 4 31 310° NW
Do, 20.06. 20:50 26 4 - 310° NW
Do, 20.06. 20:40 25 4 - 310° NW
Do, 20.06. 20:30 24 4 30 320° NW
Do, 20.06. 20:00 18 3 25 320° NW
Do, 20.06. 19:30 11 2 18 350° N
Do, 20.06. 19:00 22 4 32 340° N
Do, 20.06. 18:30 24 4 31 320° NW
Ortszeit Untergrenze Bedeckung Gattung
total tief tief mittel hoch
Do, 20.06. 20:00 1290 m 7/8 2/8 - - -
Do, 20.06. 14:00 600 m 8/8 8/8 - - -
Do, 20.06. 8:00 210 m 8/8 8/8 - - -
Do, 20.06. 2:00 3900 m 8/8 8/8 - - -
Mi, 19.06. 20:00 1800 m 7/8 1/8 - - -
Mi, 19.06. 14:00 - 0/8 0/8 - - -
Mi, 19.06. 8:00 4500 m 8/8 8/8 - - -
Mi, 19.06. 2:00 2700 m 6/8 4/8 - - -
Ortszeit Bedeckungsgrad in Achtel und Wolkenuntergrenze
Do, 20.06. 21:30 2(600m) 3(2400m) 8(3600m)
Do, 20.06. 21:20 2(600m) 3(2400m) 8(3600m)
Do, 20.06. 21:10 2(450m) 3(690m) 8(3600m)
Do, 20.06. 21:00 6(450m) 7(690m) 8(3900m)
Do, 20.06. 20:50 6(450m) 7(690m) 8(3900m)
Do, 20.06. 20:40 6(450m) 7(720m) 8(3900m)
Do, 20.06. 20:30 4(480m) 7(4200m) 7(9000m)
Do, 20.06. 20:00 2(1290m) 7(4500m) 7(9000m)
Do, 20.06. 19:30 2(1140m) 3(1500m) 5(9000m)
Do, 20.06. 19:00 1(900m) 6(2100m) 7(3000m)
Do, 20.06. 18:30 1(1050m) 4(3000m)
Ortszeit Luftdruck NN (hPa) Tendenz (hPa in 3 Std.)
Do, 20.06. 20:00 1012 + 0,8
Do, 20.06. 14:00 1011 + 1,2
Do, 20.06. 8:00 1008 + 1,4
Do, 20.06. 2:00 1007 - 0,9
Mi, 19.06. 20:00 1006 + 0,5
Mi, 19.06. 14:00 1007 0,0
Mi, 19.06. 8:00 1008 - 1,1
Mi, 19.06. 2:00 1011 - 1,7
Ortszeit Luftdruck NN (hPa) Tendenz (hPa in 3 Std.)
Do, 20.06. 21:30 1013 + 1,6
Do, 20.06. 21:20 1013 keine Meldung
Do, 20.06. 21:10 1013 keine Meldung
Do, 20.06. 21:00 1013 + 1,5
Do, 20.06. 20:50 1013 keine Meldung
Do, 20.06. 20:40 1013 keine Meldung
Do, 20.06. 20:30 1012 + 1,3
Do, 20.06. 20:00 1012 + 0,8
Do, 20.06. 19:30 1012 + 0,8
Do, 20.06. 19:00 1011 + 0,1
Do, 20.06. 18:30 1011 + 0,2
Ortszeit Schneehöhe (cm)
Do, 20.06. 20:00 -
Do, 20.06. 14:00 -
Do, 20.06. 8:00 -
Do, 20.06. 2:00 -
Mi, 19.06. 20:00 -
Mi, 19.06. 14:00 -
Mi, 19.06. 8:00 -
Mi, 19.06. 2:00 -
Ortszeit Schneehöhe (cm)
Do, 20.06. 21:30 -
Do, 20.06. 21:20 -
Do, 20.06. 21:10 -
Do, 20.06. 21:00 -
Do, 20.06. 20:50 -
Do, 20.06. 20:40 -
Do, 20.06. 20:30 -
Do, 20.06. 20:00 -
Do, 20.06. 19:30 -
Do, 20.06. 19:00 -
Do, 20.06. 18:30 -
Link zu dieser Seite / Seite empfehlen

Das Wetter in ...